createdAt,value
2022-11-24T00:01:17.852Z,100.00
2022-11-24T00:03:46.984Z,100.00
2022-11-24T00:06:15.986Z,100.00
2022-11-24T00:08:44.999Z,100.00
2022-11-24T00:11:18.400Z,100.00
2022-11-24T00:13:45.433Z,100.00
2022-11-24T00:16:17.449Z,100.00
2022-11-24T00:18:46.001Z,99.11
2022-11-24T00:21:13.814Z,98.77
2022-11-24T00:23:41.111Z,98.15
2022-11-24T00:26:13.777Z,97.72
2022-11-24T00:28:42.299Z,97.46
2022-11-24T00:31:17.974Z,97.03
2022-11-24T00:33:46.685Z,96.92
2022-11-24T00:36:13.901Z,96.00
2022-11-24T00:38:41.481Z,95.61
2022-11-24T00:41:08.442Z,96.10
2022-11-24T00:43:35.306Z,96.32
2022-11-24T00:46:02.442Z,96.66
2022-11-24T00:48:30.750Z,96.92
2022-11-24T00:51:00.056Z,97.12
2022-11-24T00:53:27.662Z,97.23
2022-11-24T00:55:55.628Z,97.03
2022-11-24T00:58:23.452Z,96.91
2022-11-24T01:00:51.271Z,99.75
2022-11-24T01:03:20.879Z,97.67
2022-11-24T01:05:47.923Z,95.61
2022-11-24T01:08:15.074Z,94.44
2022-11-24T01:10:41.925Z,94.65
2022-11-24T01:13:08.861Z,94.12
2022-11-24T01:15:36.918Z,94.58
2022-11-24T01:18:04.782Z,95.42
2022-11-24T01:20:32.300Z,96.46
2022-11-24T01:22:59.446Z,96.27
2022-11-24T01:25:26.355Z,98.61
2022-11-24T01:27:53.404Z,99.32
2022-11-24T01:30:23.194Z,99.24
2022-11-24T01:32:50.081Z,98.37
2022-11-24T01:35:16.900Z,97.45
2022-11-24T01:37:43.751Z,99.07
2022-11-24T01:40:11.241Z,100.00
2022-11-24T01:42:51.897Z,100.00
2022-11-24T01:45:27.300Z,100.00
2022-11-24T01:47:54.546Z,100.00
2022-11-24T01:50:21.946Z,100.00
2022-11-24T01:52:55.554Z,100.00
2022-11-24T01:55:27.821Z,100.00
2022-11-24T01:58:14.635Z,100.00
2022-11-24T02:00:44.433Z,100.00
2022-11-24T02:03:18.435Z,100.00
2022-11-24T02:05:57.960Z,100.00
2022-11-24T02:08:54.305Z,100.00
2022-11-24T02:11:24.265Z,99.19
2022-11-24T02:13:54.042Z,97.80
2022-11-24T02:16:21.338Z,98.87
2022-11-24T02:18:48.305Z,100.00
2022-11-24T02:21:16.584Z,99.09
2022-11-24T02:24:18.140Z,99.30
2022-11-24T02:26:47.367Z,100.00
2022-11-24T02:29:15.143Z,98.69
2022-11-24T02:31:47.682Z,98.71
2022-11-24T02:34:14.737Z,99.01
2022-11-24T02:36:41.675Z,100.00
2022-11-24T02:39:14.853Z,100.00
2022-11-24T02:41:57.210Z,100.00
2022-11-24T02:44:28.181Z,100.00
2022-11-24T02:47:06.983Z,100.00
2022-11-24T02:49:34.055Z,100.00
2022-11-24T02:52:01.181Z,100.00
2022-11-24T02:54:28.588Z,100.00
2022-11-24T02:56:55.671Z,100.00
2022-11-24T02:59:22.725Z,100.00
2022-11-24T03:01:49.976Z,100.00
2022-11-24T03:04:17.027Z,100.00
2022-11-24T03:06:44.119Z,100.00
2022-11-24T03:09:14.300Z,100.00
2022-11-24T03:11:41.321Z,100.00
2022-11-24T03:14:08.706Z,100.00
2022-11-24T03:16:35.949Z,100.00
2022-11-24T03:19:03.251Z,100.00
2022-11-24T03:21:30.288Z,100.00
2022-11-24T03:23:57.285Z,100.00
2022-11-24T03:26:25.949Z,100.00
2022-11-24T03:28:57.330Z,100.00
2022-11-24T03:31:24.602Z,100.00
2022-11-24T03:33:51.616Z,100.00
2022-11-24T03:36:18.842Z,100.00
2022-11-24T03:38:46.067Z,100.00
2022-11-24T03:41:13.156Z,100.00
2022-11-24T03:43:43.680Z,100.00
2022-11-24T03:46:12.344Z,100.00
2022-11-24T03:48:39.547Z,100.00
2022-11-24T03:51:06.896Z,100.00
2022-11-24T03:53:34.367Z,100.00
2022-11-24T03:56:04.985Z,100.00
2022-11-24T03:58:31.934Z,100.00
2022-11-24T04:00:59.008Z,100.00
2022-11-24T04:03:26.130Z,100.00
2022-11-24T04:05:53.227Z,100.00
2022-11-24T04:08:20.465Z,100.00
2022-11-24T04:10:54.260Z,100.00
2022-11-24T04:13:26.333Z,100.00
2022-11-24T04:15:53.724Z,100.00
2022-11-24T04:18:21.387Z,100.00
2022-11-24T04:20:52.285Z,100.00
2022-11-24T04:23:19.412Z,100.00
2022-11-24T04:25:46.408Z,100.00
2022-11-24T04:28:13.451Z,100.00
2022-11-24T04:30:44.873Z,100.00
2022-11-24T04:33:12.715Z,100.00
2022-11-24T04:35:39.640Z,100.00
2022-11-24T04:38:06.559Z,100.00
2022-11-24T04:40:33.470Z,100.00
2022-11-24T04:43:00.337Z,100.00
2022-11-24T04:45:27.256Z,100.00
2022-11-24T04:47:54.163Z,100.00
2022-11-24T04:50:21.280Z,100.00
2022-11-24T04:52:48.304Z,100.00
2022-11-24T04:55:15.239Z,100.00
2022-11-24T04:57:42.062Z,100.00
2022-11-24T05:00:10.539Z,100.00
2022-11-24T05:02:37.765Z,100.00
2022-11-24T05:05:06.109Z,100.00
2022-11-24T05:07:33.489Z,100.00
2022-11-24T05:10:18.915Z,100.00
2022-11-24T05:12:51.020Z,100.00
2022-11-24T05:15:18.430Z,100.00
2022-11-24T05:17:45.289Z,100.00
2022-11-24T05:20:12.215Z,100.00
2022-11-24T05:22:39.229Z,100.00
2022-11-24T05:25:06.397Z,100.00
2022-11-24T05:27:33.429Z,100.00
2022-11-24T05:30:00.430Z,100.00
2022-11-24T05:32:27.387Z,100.00
2022-11-24T05:34:54.753Z,100.00
2022-11-24T05:37:21.918Z,100.00
2022-11-24T05:39:48.954Z,100.00
2022-11-24T05:42:34.257Z,100.00
2022-11-24T05:45:01.121Z,100.00
2022-11-24T05:47:28.099Z,100.00
2022-11-24T05:49:55.013Z,100.00
2022-11-24T05:52:21.957Z,100.00
2022-11-24T05:54:49.013Z,97.41
2022-11-24T05:57:17.771Z,96.44
2022-11-24T05:59:45.413Z,96.46
2022-11-24T06:02:12.590Z,94.41
2022-11-24T06:04:39.595Z,94.88
2022-11-24T06:07:11.443Z,96.75
2022-11-24T06:09:39.528Z,94.02
2022-11-24T06:12:08.013Z,89.04
2022-11-24T06:14:35.632Z,81.35
2022-11-24T06:17:03.543Z,77.69
2022-11-24T06:19:30.515Z,71.58
2022-11-24T06:21:57.672Z,66.22
2022-11-24T06:24:24.609Z,63.18
2022-11-24T06:26:51.521Z,62.90
2022-11-24T06:29:18.500Z,59.17
2022-11-24T06:31:45.479Z,57.39
2022-11-24T06:34:13.338Z,57.78
2022-11-24T06:36:40.295Z,58.82
2022-11-24T06:39:07.909Z,60.56
2022-11-24T06:41:35.628Z,60.67
2022-11-24T06:44:04.237Z,57.60
2022-11-24T06:46:31.519Z,61.53
2022-11-24T06:48:59.938Z,62.22
2022-11-24T06:51:27.879Z,61.73
2022-11-24T06:53:55.487Z,58.53
2022-11-24T06:56:22.512Z,55.47
2022-11-24T06:58:52.214Z,55.81
2022-11-24T07:01:24.934Z,55.42
2022-11-24T07:03:53.166Z,56.46
2022-11-24T07:06:21.275Z,61.02
2022-11-24T07:08:48.187Z,66.48
2022-11-24T07:11:18.341Z,71.61
2022-11-24T07:13:46.069Z,76.62
2022-11-24T07:16:24.628Z,76.04
2022-11-24T07:18:53.139Z,75.64
2022-11-24T07:21:22.008Z,73.51
2022-11-24T07:23:50.337Z,72.89
2022-11-24T07:26:17.616Z,68.37
2022-11-24T07:28:45.199Z,64.33
2022-11-24T07:31:18.976Z,61.99
2022-11-24T07:33:54.223Z,60.31
2022-11-24T07:36:21.434Z,61.81
2022-11-24T07:38:48.722Z,59.95
2022-11-24T07:41:17.209Z,60.47
2022-11-24T07:43:44.136Z,59.97
2022-11-24T07:46:16.932Z,57.36
2022-11-24T07:48:44.378Z,56.44
2022-11-24T07:51:11.696Z,57.15
2022-11-24T07:53:38.940Z,56.99
2022-11-24T07:56:06.488Z,58.97
2022-11-24T07:58:36.141Z,58.10
2022-11-24T08:01:14.515Z,59.54
2022-11-24T08:03:42.585Z,59.69
2022-11-24T08:06:29.059Z,58.83
2022-11-24T08:08:57.288Z,60.04
2022-11-24T08:11:24.480Z,62.16
2022-11-24T08:13:51.380Z,63.04
2022-11-24T08:16:19.874Z,61.15
2022-11-24T08:18:54.712Z,62.84
2022-11-24T08:21:25.845Z,62.59
2022-11-24T08:23:57.299Z,61.94
2022-11-24T08:26:25.203Z,61.52
2022-11-24T08:28:57.570Z,61.11
2022-11-24T08:31:27.498Z,67.10
2022-11-24T08:33:56.201Z,67.99
2022-11-24T08:36:23.282Z,66.55
2022-11-24T08:38:54.901Z,67.19
2022-11-24T08:41:22.095Z,69.18
2022-11-24T08:43:48.986Z,73.24
2022-11-24T08:46:17.853Z,73.92
2022-11-24T08:48:50.273Z,75.63
2022-11-24T08:51:19.960Z,72.93
2022-11-24T08:53:47.177Z,70.18
2022-11-24T08:56:14.496Z,72.18
2022-11-24T08:58:42.957Z,73.26
2022-11-24T09:01:12.999Z,73.99
2022-11-24T09:03:44.981Z,74.59
2022-11-24T09:06:19.156Z,74.69
2022-11-24T09:08:46.221Z,75.15
2022-11-24T09:11:15.321Z,74.78
2022-11-24T09:13:42.321Z,75.61
2022-11-24T09:16:11.943Z,75.97
2022-11-24T09:18:38.948Z,79.08
2022-11-24T09:21:16.182Z,81.25
2022-11-24T09:23:44.072Z,85.94
2022-11-24T09:26:16.327Z,87.55
2022-11-24T09:28:44.055Z,89.30
2022-11-24T09:31:13.474Z,87.15
2022-11-24T09:33:41.661Z,86.68
2022-11-24T09:36:08.889Z,85.17
2022-11-24T09:38:35.819Z,84.36
2022-11-24T09:41:14.462Z,87.04
2022-11-24T09:44:06.436Z,85.77
2022-11-24T09:46:56.709Z,84.70
2022-11-24T09:49:42.045Z,88.00
2022-11-24T09:52:23.130Z,89.07
2022-11-24T09:55:01.276Z,88.54
2022-11-24T09:57:37.087Z,88.43
2022-11-24T10:00:13.017Z,92.70
2022-11-24T10:02:40.134Z,97.39
2022-11-24T10:05:08.689Z,100.00
2022-11-24T10:07:46.688Z,100.00
2022-11-24T10:10:25.266Z,98.98
2022-11-24T10:13:16.884Z,98.57
2022-11-24T10:16:04.414Z,99.69
2022-11-24T10:18:40.909Z,97.78
2022-11-24T10:21:23.170Z,97.10
2022-11-24T10:24:07.409Z,96.53
2022-11-24T10:26:43.128Z,98.60
2022-11-24T10:29:12.742Z,98.56
2022-11-24T10:31:45.887Z,100.00
2022-11-24T10:34:21.216Z,100.00
2022-11-24T10:37:03.706Z,98.45
2022-11-24T10:39:39.550Z,100.00
2022-11-24T10:42:38.654Z,99.03
2022-11-24T10:45:14.567Z,95.84
2022-11-24T10:47:43.008Z,95.63
2022-11-24T10:50:19.441Z,97.34
2022-11-24T10:53:04.427Z,98.20
2022-11-24T10:55:56.158Z,97.19
2022-11-24T10:58:38.005Z,98.04
2022-11-24T11:01:14.706Z,98.08
2022-11-24T11:03:57.935Z,98.42
2022-11-24T11:06:26.408Z,100.00
2022-11-24T11:09:08.310Z,100.00
2022-11-24T11:11:36.934Z,100.00
2022-11-24T11:14:08.957Z,100.00
2022-11-24T11:16:41.577Z,100.00
2022-11-24T11:19:54.164Z,100.00
2022-11-24T11:22:26.417Z,100.00
2022-11-24T11:25:36.200Z,100.00
2022-11-24T11:28:18.794Z,100.00
2022-11-24T11:31:17.976Z,100.00
2022-11-24T11:34:05.435Z,100.00
2022-11-24T11:36:34.596Z,100.00
2022-11-24T11:39:03.982Z,100.00
2022-11-24T11:41:36.310Z,100.00
2022-11-24T11:44:29.146Z,100.00
2022-11-24T11:46:58.759Z,100.00
2022-11-24T11:49:25.945Z,100.00
2022-11-24T11:52:13.963Z,100.00
2022-11-24T11:55:18.861Z,100.00
2022-11-24T11:58:02.279Z,100.00
2022-11-24T12:00:32.535Z,100.00
2022-11-24T12:03:18.022Z,100.00
2022-11-24T12:05:55.067Z,100.00
2022-11-24T12:09:11.428Z,100.00
2022-11-24T12:11:43.356Z,100.00
2022-11-24T12:14:41.715Z,100.00
2022-11-24T12:17:37.934Z,100.00
2022-11-24T12:20:13.880Z,100.00
2022-11-24T12:23:00.066Z,100.00
2022-11-24T12:25:56.212Z,100.00
2022-11-24T12:28:32.725Z,100.00
2022-11-24T12:31:07.211Z,100.00
2022-11-24T12:33:39.865Z,100.00
2022-11-24T12:36:34.481Z,100.00
2022-11-24T12:39:25.660Z,100.00
2022-11-24T12:42:00.351Z,100.00
2022-11-24T12:44:56.271Z,100.00
2022-11-24T12:47:52.621Z,100.00
2022-11-24T12:50:24.444Z,100.00
2022-11-24T12:53:10.098Z,100.00
2022-11-24T12:55:38.326Z,100.00
2022-11-24T12:58:22.542Z,100.00
2022-11-24T13:01:29.427Z,100.00
2022-11-24T13:04:32.384Z,100.00
2022-11-24T13:07:19.875Z,100.00
2022-11-24T13:13:14.659Z,100.00
2022-11-24T13:18:59.477Z,100.00
2022-11-24T13:21:41.780Z,100.00
2022-11-24T13:24:18.573Z,100.00
2022-11-24T13:26:49.472Z,100.00
2022-11-24T13:29:28.519Z,100.00
2022-11-24T13:32:05.103Z,100.00
2022-11-24T13:34:41.491Z,100.00
2022-11-24T13:37:31.898Z,100.00
2022-11-24T13:40:11.603Z,100.00
2022-11-24T13:42:58.994Z,100.00
2022-11-24T13:45:47.191Z,100.00
2022-11-24T13:48:20.469Z,100.00
2022-11-24T13:50:51.099Z,100.00
2022-11-24T13:53:27.237Z,100.00
2022-11-24T13:55:58.791Z,100.00
2022-11-24T13:58:37.061Z,100.00
2022-11-24T14:01:26.132Z,100.00
2022-11-24T14:04:29.374Z,100.00
2022-11-24T14:06:53.371Z,100.00
2022-11-24T14:09:25.731Z,100.00
2022-11-24T14:12:06.437Z,100.00
2022-11-24T14:14:33.733Z,100.00
2022-11-24T14:17:07.888Z,100.00
2022-11-24T14:19:34.886Z,100.00
2022-11-24T14:22:01.889Z,100.00
2022-11-24T14:24:38.092Z,100.00
2022-11-24T14:27:17.713Z,100.00
2022-11-24T14:30:16.935Z,100.00
2022-11-24T14:32:57.738Z,100.00
2022-11-24T14:35:28.836Z,100.00
2022-11-24T14:37:55.852Z,100.00
2022-11-24T14:40:42.702Z,100.00
2022-11-24T14:43:24.560Z,100.00
2022-11-24T14:46:18.087Z,100.00
2022-11-24T14:48:50.661Z,100.00
2022-11-24T14:51:20.167Z,100.00
2022-11-24T14:54:00.304Z,100.00
2022-11-24T14:56:36.906Z,100.00
2022-11-24T14:59:20.464Z,100.00
2022-11-24T15:01:47.576Z,100.00
2022-11-24T15:04:54.399Z,100.00
2022-11-24T15:07:44.566Z,100.00
2022-11-24T15:10:44.006Z,100.00
2022-11-24T15:13:20.608Z,100.00
2022-11-24T15:15:55.271Z,100.00
2022-11-24T15:18:32.638Z,100.00
2022-11-24T15:20:59.740Z,100.00
2022-11-24T15:23:27.600Z,100.00
2022-11-24T15:26:14.664Z,100.00
2022-11-24T15:28:41.542Z,100.00
2022-11-24T15:31:13.670Z,100.00
2022-11-24T15:33:42.395Z,100.00
2022-11-24T15:36:09.362Z,100.00
2022-11-24T15:38:36.223Z,100.00
2022-11-24T15:41:18.421Z,100.00
2022-11-24T15:43:45.513Z,100.00
2022-11-24T15:46:12.550Z,100.00
2022-11-24T15:48:39.496Z,100.00
2022-11-24T15:51:11.490Z,100.00
2022-11-24T15:53:42.731Z,100.00
2022-11-24T15:56:24.021Z,100.00
2022-11-24T15:58:51.096Z,100.00
2022-11-24T16:01:18.105Z,100.00
2022-11-24T16:03:47.415Z,100.00
2022-11-24T16:06:23.632Z,99.32
2022-11-24T16:08:51.772Z,99.12
2022-11-24T16:11:18.732Z,98.87
2022-11-24T16:13:51.942Z,98.76
2022-11-24T16:16:20.593Z,99.06
2022-11-24T16:18:48.201Z,97.93
2022-11-24T16:21:15.236Z,97.50
2022-11-24T16:23:42.195Z,96.68
2022-11-24T16:26:10.244Z,97.05
2022-11-24T16:28:37.133Z,96.21
2022-11-24T16:31:04.229Z,96.52
2022-11-24T16:33:31.287Z,96.61
2022-11-24T16:35:58.623Z,96.11
2022-11-24T16:38:25.522Z,95.91
2022-11-24T16:40:54.096Z,95.00
2022-11-24T16:43:21.059Z,95.94
2022-11-24T16:46:17.180Z,97.52
2022-11-24T16:48:45.246Z,98.69
2022-11-24T16:51:13.662Z,98.23
2022-11-24T16:53:41.140Z,98.00
2022-11-24T16:56:08.458Z,98.71
2022-11-24T16:58:39.898Z,97.31
2022-11-24T17:01:10.508Z,95.85
2022-11-24T17:03:38.238Z,97.46
2022-11-24T17:06:07.929Z,97.70
2022-11-24T17:08:36.347Z,96.19
2022-11-24T17:11:29.835Z,94.81
2022-11-24T17:13:58.162Z,94.67
2022-11-24T17:16:26.464Z,95.15
2022-11-24T17:18:54.317Z,94.46
2022-11-24T17:21:23.625Z,94.44
2022-11-24T17:23:59.479Z,95.20
2022-11-24T17:26:27.803Z,95.04
2022-11-24T17:28:56.113Z,94.75
2022-11-24T17:31:35.869Z,95.77
2022-11-24T17:34:04.897Z,95.68
2022-11-24T17:36:34.177Z,95.43
2022-11-24T17:39:04.873Z,95.05
2022-11-24T17:41:32.293Z,96.23
2022-11-24T17:43:59.569Z,95.96
2022-11-24T17:46:27.775Z,95.52
2022-11-24T17:48:55.454Z,96.13
2022-11-24T17:51:24.747Z,95.96
2022-11-24T17:53:53.099Z,95.15
2022-11-24T17:56:25.300Z,94.57
2022-11-24T17:58:54.386Z,94.47
2022-11-24T18:01:21.936Z,96.02
2022-11-24T18:03:53.518Z,95.24
2022-11-24T18:06:24.205Z,94.08
2022-11-24T18:08:52.641Z,94.27
2022-11-24T18:11:30.463Z,93.46
2022-11-24T18:14:02.041Z,94.03
2022-11-24T18:16:31.451Z,93.83
2022-11-24T18:19:09.821Z,94.33
2022-11-24T18:21:41.419Z,93.90
2022-11-24T18:24:09.975Z,94.75
2022-11-24T18:26:37.548Z,93.34
2022-11-24T18:29:04.723Z,93.78
2022-11-24T18:31:32.437Z,92.17
2022-11-24T18:33:59.679Z,93.37
2022-11-24T18:36:30.511Z,92.10
2022-11-24T18:39:01.230Z,92.30
2022-11-24T18:41:28.245Z,91.67
2022-11-24T18:43:55.173Z,91.29
2022-11-24T18:46:22.222Z,92.22
2022-11-24T18:48:51.661Z,91.33
2022-11-24T18:51:19.148Z,92.13
2022-11-24T18:53:47.227Z,91.39
2022-11-24T18:56:17.788Z,91.86
2022-11-24T18:58:45.233Z,93.04
2022-11-24T19:01:14.836Z,92.47
2022-11-24T19:03:49.025Z,92.96
2022-11-24T19:06:24.152Z,92.64
2022-11-24T19:08:53.780Z,91.89
2022-11-24T19:11:26.002Z,91.75
2022-11-24T19:13:52.880Z,90.52
2022-11-24T19:16:21.647Z,90.15
2022-11-24T19:18:53.924Z,90.49
2022-11-24T19:21:22.513Z,89.83
2022-11-24T19:23:50.158Z,89.38
2022-11-24T19:26:17.152Z,90.24
2022-11-24T19:28:44.745Z,90.14
2022-11-24T19:31:13.948Z,90.45
2022-11-24T19:33:41.568Z,90.72
2022-11-24T19:36:12.012Z,90.28
2022-11-24T19:38:39.193Z,90.22
2022-11-24T19:41:08.096Z,90.58
2022-11-24T19:43:35.442Z,90.65
2022-11-24T19:46:03.192Z,90.63
2022-11-24T19:48:34.869Z,90.18
2022-11-24T19:51:03.652Z,90.63
2022-11-24T19:53:31.216Z,90.38
2022-11-24T19:56:09.632Z,90.63
2022-11-24T19:58:36.964Z,90.56
2022-11-24T20:01:16.032Z,89.45
2022-11-24T20:03:44.823Z,90.46
2022-11-24T20:06:13.837Z,90.38
2022-11-24T20:08:41.695Z,89.96
2022-11-24T20:11:22.347Z,90.22
2022-11-24T20:13:50.049Z,90.86
2022-11-24T20:16:19.873Z,90.12
2022-11-24T20:18:47.803Z,89.80
2022-11-24T20:21:17.622Z,90.21
2022-11-24T20:23:46.320Z,88.95
2022-11-24T20:26:17.009Z,89.46
2022-11-24T20:28:43.881Z,89.20
2022-11-24T20:31:28.406Z,89.31
2022-11-24T20:33:55.594Z,90.24
2022-11-24T20:36:24.898Z,89.05
2022-11-24T20:38:53.455Z,89.79
2022-11-24T20:41:23.402Z,89.74
2022-11-24T20:43:51.744Z,89.08
2022-11-24T20:46:23.725Z,89.45
2022-11-24T20:48:51.265Z,89.51
2022-11-24T20:51:21.793Z,88.23
2022-11-24T20:53:50.078Z,87.77
2022-11-24T20:56:19.342Z,86.36
2022-11-24T20:58:46.753Z,86.46
2022-11-24T21:01:22.850Z,86.34
2022-11-24T21:03:55.318Z,87.48
2022-11-24T21:06:23.106Z,87.36
2022-11-24T21:08:51.124Z,87.68
2022-11-24T21:11:19.384Z,87.61
2022-11-24T21:13:48.828Z,87.67
2022-11-24T21:16:21.480Z,88.12
2022-11-24T21:18:53.417Z,88.64
2022-11-24T21:21:21.900Z,89.36
2022-11-24T21:23:49.663Z,89.55
2022-11-24T21:26:18.293Z,89.24
2022-11-24T21:28:47.252Z,89.46
2022-11-24T21:31:20.016Z,89.33
2022-11-24T21:33:49.575Z,88.70
2022-11-24T21:36:19.730Z,88.75
2022-11-24T21:38:57.721Z,88.99
2022-11-24T21:41:27.894Z,89.87
2022-11-24T21:43:58.356Z,89.91
2022-11-24T21:46:25.547Z,90.76
2022-11-24T21:48:52.491Z,91.03
2022-11-24T21:51:20.958Z,90.08
2022-11-24T21:53:47.961Z,90.03
2022-11-24T21:56:24.496Z,90.09
2022-11-24T21:58:56.593Z,89.98
2022-11-24T22:01:28.151Z,89.39
2022-11-24T22:03:56.279Z,89.58
2022-11-24T22:06:23.641Z,89.67
2022-11-24T22:08:50.732Z,89.50
2022-11-24T22:11:20.307Z,89.94
2022-11-24T22:13:47.818Z,88.47
2022-11-24T22:16:21.087Z,89.13
2022-11-24T22:18:48.607Z,88.25
2022-11-24T22:21:30.022Z,88.66
2022-11-24T22:23:57.413Z,86.72
2022-11-24T22:26:25.320Z,87.19
2022-11-24T22:28:54.008Z,87.51
2022-11-24T22:31:23.549Z,87.83
2022-11-24T22:33:51.773Z,86.99
2022-11-24T22:36:23.509Z,86.95
2022-11-24T22:38:58.397Z,87.64
2022-11-24T22:41:25.942Z,87.43
2022-11-24T22:43:53.750Z,86.75
2022-11-24T22:46:23.367Z,87.20
2022-11-24T22:48:53.064Z,87.55
2022-11-24T22:51:22.465Z,88.11
2022-11-24T22:53:51.529Z,87.55
2022-11-24T22:56:19.714Z,87.30
2022-11-24T22:58:46.960Z,86.79
2022-11-24T23:01:17.310Z,85.94
2022-11-24T23:03:45.092Z,86.04
2022-11-24T23:06:14.880Z,86.13
2022-11-24T23:08:42.386Z,86.33
2022-11-24T23:11:30.750Z,86.37
2022-11-24T23:14:02.837Z,86.35
2022-11-24T23:16:30.681Z,86.66
2022-11-24T23:18:58.148Z,87.36
2022-11-24T23:21:28.711Z,86.56
2022-11-24T23:23:56.277Z,86.89
2022-11-24T23:26:26.146Z,86.16
2022-11-24T23:28:53.145Z,86.71
2022-11-24T23:31:24.310Z,87.24
2022-11-24T23:33:51.359Z,86.74
2022-11-24T23:36:19.846Z,86.14
2022-11-24T23:38:48.041Z,85.53
2022-11-24T23:41:18.569Z,86.50
2022-11-24T23:43:45.592Z,86.44
2022-11-24T23:46:20.711Z,86.79
2022-11-24T23:48:50.707Z,87.18
2022-11-24T23:51:28.678Z,86.31
2022-11-24T23:53:56.587Z,86.80
2022-11-24T23:56:33.456Z,87.14
2022-11-24T23:59:02.576Z,86.71
